createdAt,value
2023-03-06T00:00:36.215Z,4.70
2023-03-06T00:03:06.695Z,6.10
2023-03-06T00:05:36.049Z,8.80
2023-03-06T00:08:04.812Z,6.93
2023-03-06T00:10:36.057Z,7.27
2023-03-06T00:13:08.313Z,4.63
2023-03-06T00:15:38.237Z,6.30
2023-03-06T00:18:09.364Z,3.73
2023-03-06T00:20:40.266Z,5.50
2023-03-06T00:23:08.930Z,10.13
2023-03-06T00:25:38.836Z,6.73
2023-03-06T00:28:08.792Z,3.93
2023-03-06T00:30:37.592Z,5.53
2023-03-06T00:33:08.067Z,6.90
2023-03-06T00:35:37.317Z,5.73
2023-03-06T00:38:07.658Z,5.23
2023-03-06T00:40:36.710Z,5.80
2023-03-06T00:43:05.910Z,7.60
2023-03-06T00:45:34.366Z,6.70
2023-03-06T00:48:03.178Z,6.43
2023-03-06T00:50:35.415Z,7.47
2023-03-06T00:53:04.194Z,7.20
2023-03-06T00:55:34.034Z,4.97
2023-03-06T00:58:02.298Z,5.50
2023-03-06T01:00:31.424Z,4.60
2023-03-06T01:02:59.814Z,5.70
2023-03-06T01:05:28.789Z,4.57
2023-03-06T01:07:59.945Z,6.70
2023-03-06T01:10:29.219Z,7.20
2023-03-06T01:12:58.556Z,5.90
2023-03-06T01:15:27.718Z,6.67
2023-03-06T01:17:56.200Z,7.47
2023-03-06T01:20:25.213Z,9.93
2023-03-06T01:22:54.687Z,7.20
2023-03-06T01:25:25.010Z,7.70
2023-03-06T01:27:54.330Z,8.33
2023-03-06T01:30:22.990Z,6.63
2023-03-06T01:32:51.918Z,5.63
2023-03-06T01:35:21.181Z,8.30
2023-03-06T01:37:50.042Z,15.80
2023-03-06T01:40:19.188Z,7.50
2023-03-06T01:42:52.246Z,6.90
2023-03-06T01:45:58.141Z,10.40
2023-03-06T01:48:26.844Z,7.20
2023-03-06T01:50:55.766Z,8.73
2023-03-06T01:53:24.221Z,8.30
2023-03-06T01:55:52.618Z,10.17
2023-03-06T01:58:24.313Z,8.77
2023-03-06T02:00:52.843Z,10.60
2023-03-06T02:03:25.826Z,10.10
2023-03-06T02:05:55.723Z,9.17
2023-03-06T02:08:26.837Z,9.67
2023-03-06T02:11:03.545Z,13.00
2023-03-06T02:13:34.069Z,8.47
2023-03-06T02:16:02.926Z,6.50
2023-03-06T02:18:37.316Z,8.30
2023-03-06T02:21:09.292Z,8.00
2023-03-06T02:23:48.996Z,10.63
2023-03-06T02:26:20.398Z,9.97
2023-03-06T02:28:49.770Z,12.50
2023-03-06T02:31:25.878Z,7.93
2023-03-06T02:34:09.639Z,9.43
2023-03-06T02:36:43.285Z,10.57
2023-03-06T02:39:13.708Z,7.80
2023-03-06T02:41:43.845Z,8.53
2023-03-06T02:44:12.575Z,10.80
2023-03-06T02:46:41.383Z,7.53
2023-03-06T02:49:09.735Z,9.33
2023-03-06T02:51:38.985Z,12.97
2023-03-06T02:54:08.058Z,13.20
2023-03-06T02:56:36.600Z,10.20
2023-03-06T02:59:06.827Z,7.80
2023-03-06T03:01:35.790Z,9.37
2023-03-06T03:04:09.278Z,9.67
2023-03-06T03:06:39.025Z,7.53
2023-03-06T03:09:08.368Z,7.27
2023-03-06T03:11:37.047Z,9.37
2023-03-06T03:14:06.997Z,7.93
2023-03-06T03:16:39.379Z,8.47
2023-03-06T03:19:08.618Z,9.70
2023-03-06T03:21:39.592Z,8.73
2023-03-06T03:24:11.165Z,8.40
2023-03-06T03:26:41.205Z,9.57
2023-03-06T03:29:16.209Z,6.80
2023-03-06T03:31:44.962Z,10.50
2023-03-06T03:34:13.514Z,6.97
2023-03-06T03:36:44.062Z,6.43
2023-03-06T03:39:17.666Z,11.23
2023-03-06T03:41:47.476Z,8.27
2023-03-06T03:44:19.737Z,9.70
2023-03-06T03:46:51.091Z,9.77
2023-03-06T03:49:25.805Z,9.17
2023-03-06T03:51:55.467Z,10.23
2023-03-06T03:54:26.927Z,11.50
2023-03-06T03:56:56.295Z,10.23
2023-03-06T03:59:30.897Z,8.87
2023-03-06T04:02:15.526Z,9.60
2023-03-06T04:04:53.168Z,9.00
2023-03-06T04:07:23.889Z,9.27
2023-03-06T04:09:56.673Z,8.13
2023-03-06T04:12:26.526Z,7.87
2023-03-06T04:14:56.521Z,7.37
2023-03-06T04:17:25.952Z,8.67
2023-03-06T04:19:56.359Z,8.13
2023-03-06T04:22:24.986Z,7.50
2023-03-06T04:24:55.028Z,8.70
2023-03-06T04:27:24.213Z,9.57
2023-03-06T04:29:56.502Z,8.07
2023-03-06T04:32:27.840Z,9.73
2023-03-06T04:34:56.711Z,8.97
2023-03-06T04:37:28.991Z,7.30
2023-03-06T04:39:59.664Z,7.93
2023-03-06T04:42:28.522Z,11.17
2023-03-06T04:44:57.528Z,10.13
2023-03-06T04:47:27.724Z,7.30
2023-03-06T04:49:56.642Z,8.47
2023-03-06T04:52:25.867Z,8.37
2023-03-06T04:54:54.495Z,6.03
2023-03-06T04:57:24.000Z,7.87
2023-03-06T04:59:54.400Z,8.10
2023-03-06T05:02:24.539Z,9.20
2023-03-06T05:04:56.225Z,10.03
2023-03-06T05:07:25.722Z,10.80
2023-03-06T05:09:55.104Z,9.47
2023-03-06T05:12:24.988Z,9.20
2023-03-06T05:14:53.522Z,9.57
2023-03-06T05:17:23.558Z,11.37
2023-03-06T05:19:57.825Z,12.27
2023-03-06T05:22:26.595Z,8.27
2023-03-06T05:24:55.938Z,10.77
2023-03-06T05:27:24.843Z,10.23
2023-03-06T05:29:53.369Z,9.53
2023-03-06T05:32:22.256Z,11.80
2023-03-06T05:34:51.400Z,11.70
2023-03-06T05:37:23.671Z,10.10
2023-03-06T05:39:53.705Z,9.50
2023-03-06T05:42:22.539Z,12.17
2023-03-06T05:44:51.852Z,11.57
2023-03-06T05:47:20.425Z,12.37
2023-03-06T05:49:51.053Z,13.50
2023-03-06T05:52:23.860Z,14.80
2023-03-06T05:54:53.812Z,14.00
2023-03-06T05:57:24.133Z,12.17
2023-03-06T05:59:53.110Z,11.67
2023-03-06T06:02:22.825Z,11.10
2023-03-06T06:04:51.387Z,13.40
2023-03-06T06:07:21.794Z,11.80
2023-03-06T06:09:54.106Z,15.13
2023-03-06T06:12:23.031Z,12.37
2023-03-06T06:14:53.282Z,16.40
2023-03-06T06:17:22.097Z,12.50
2023-03-06T06:19:50.585Z,12.70
2023-03-06T06:22:21.843Z,12.60
2023-03-06T06:24:51.188Z,13.07
2023-03-06T06:27:21.454Z,12.23
2023-03-06T06:29:53.024Z,12.67
2023-03-06T06:32:22.532Z,11.97
2023-03-06T06:34:51.959Z,13.00
2023-03-06T06:37:21.653Z,14.50
2023-03-06T06:39:51.536Z,13.33
2023-03-06T06:42:31.560Z,18.93
2023-03-06T06:45:03.249Z,10.70
2023-03-06T06:47:33.318Z,11.13
2023-03-06T06:50:02.120Z,15.37
2023-03-06T06:52:32.886Z,18.37
2023-03-06T06:55:01.552Z,11.90
2023-03-06T06:57:31.260Z,14.97
2023-03-06T06:59:59.671Z,12.37
2023-03-06T07:02:28.655Z,12.67
2023-03-06T07:05:04.220Z,12.20
2023-03-06T07:07:36.820Z,15.40
2023-03-06T07:10:07.573Z,16.17
2023-03-06T07:12:36.912Z,16.90
2023-03-06T07:15:06.128Z,14.63
2023-03-06T07:17:36.761Z,15.73
2023-03-06T07:20:07.218Z,17.40
2023-03-06T07:22:50.230Z,16.60
2023-03-06T07:25:20.758Z,18.27
2023-03-06T07:27:53.768Z,12.50
2023-03-06T07:30:23.428Z,13.93
2023-03-06T07:32:54.255Z,17.90
2023-03-06T07:35:25.454Z,17.57
2023-03-06T07:37:59.462Z,16.90
2023-03-06T07:40:29.399Z,14.47
2023-03-06T07:43:12.954Z,17.10
2023-03-06T07:45:57.662Z,16.17
2023-03-06T07:48:26.091Z,14.87
2023-03-06T07:50:59.919Z,14.47
2023-03-06T07:53:30.493Z,16.53
2023-03-06T07:55:59.338Z,14.93
2023-03-06T07:58:29.490Z,14.77
2023-03-06T08:00:58.794Z,17.10
2023-03-06T08:03:27.328Z,12.53
2023-03-06T08:05:56.239Z,12.00
2023-03-06T08:08:24.579Z,13.93
2023-03-06T08:10:54.408Z,17.10
2023-03-06T08:13:22.953Z,12.10
2023-03-06T08:15:52.034Z,15.43
2023-03-06T08:18:22.200Z,16.83
2023-03-06T08:20:50.613Z,18.70
2023-03-06T08:23:19.085Z,14.90
2023-03-06T08:25:47.969Z,13.20
2023-03-06T08:28:18.629Z,15.80
2023-03-06T08:30:47.105Z,13.77
2023-03-06T08:33:19.565Z,17.90
2023-03-06T08:35:49.427Z,15.50
2023-03-06T08:38:18.307Z,13.40
2023-03-06T08:40:48.327Z,15.03
2023-03-06T08:43:18.340Z,13.20
2023-03-06T08:45:47.013Z,15.43
2023-03-06T08:48:15.373Z,14.63
2023-03-06T08:50:56.141Z,16.23
2023-03-06T08:53:40.349Z,15.83
2023-03-06T08:56:17.095Z,20.50
2023-03-06T08:58:48.998Z,11.83
2023-03-06T09:01:21.582Z,12.93
2023-03-06T09:03:51.409Z,13.80
2023-03-06T09:06:19.896Z,15.47
2023-03-06T09:08:50.859Z,18.70
2023-03-06T09:11:19.557Z,13.83
2023-03-06T09:13:50.920Z,20.03
2023-03-06T09:16:21.451Z,15.50
2023-03-06T09:18:53.141Z,15.80
2023-03-06T09:21:22.582Z,14.70
2023-03-06T09:23:52.723Z,18.10
2023-03-06T09:26:27.957Z,14.83
2023-03-06T09:29:03.275Z,16.83
2023-03-06T09:31:32.112Z,13.37
2023-03-06T09:34:02.111Z,13.33
2023-03-06T09:36:30.643Z,13.97
2023-03-06T09:38:59.110Z,13.90
2023-03-06T09:41:31.597Z,16.57
2023-03-06T09:44:08.825Z,13.10
2023-03-06T09:46:58.001Z,16.30
2023-03-06T09:50:00.881Z,13.80
2023-03-06T09:52:35.617Z,17.73
2023-03-06T09:55:13.443Z,16.40
2023-03-06T09:57:51.252Z,15.67
2023-03-06T10:00:30.300Z,17.10
2023-03-06T10:03:18.307Z,13.17
2023-03-06T10:05:51.626Z,15.97
2023-03-06T10:08:26.363Z,17.47
2023-03-06T10:11:02.497Z,15.60
2023-03-06T10:13:38.118Z,15.90
2023-03-06T10:16:23.470Z,14.60
2023-03-06T10:18:56.330Z,19.97
2023-03-06T10:21:40.412Z,22.57
2023-03-06T10:24:22.009Z,15.00
2023-03-06T10:26:56.582Z,17.50
2023-03-06T10:30:01.687Z,15.60
2023-03-06T10:32:49.022Z,17.17
2023-03-06T10:35:21.859Z,13.00
2023-03-06T10:37:51.271Z,16.40
2023-03-06T10:40:22.838Z,16.77
2023-03-06T10:43:01.716Z,14.17
2023-03-06T10:45:50.279Z,20.70
2023-03-06T10:48:25.211Z,22.80
2023-03-06T10:50:55.232Z,16.80
2023-03-06T10:53:29.048Z,14.60
2023-03-06T10:55:59.531Z,19.77
2023-03-06T10:58:32.946Z,13.67
2023-03-06T11:01:07.262Z,15.00
2023-03-06T11:03:38.528Z,19.13
2023-03-06T11:06:13.084Z,18.13
2023-03-06T11:08:45.341Z,14.93
2023-03-06T11:11:28.294Z,13.50
2023-03-06T11:14:17.784Z,14.73
2023-03-06T11:16:53.181Z,17.90
2023-03-06T11:19:27.576Z,14.20
2023-03-06T11:22:04.458Z,16.40
2023-03-06T11:24:40.930Z,14.43
2023-03-06T11:27:23.969Z,16.50
2023-03-06T11:29:55.113Z,15.33
2023-03-06T11:32:31.293Z,13.97
2023-03-06T11:35:05.496Z,15.13
2023-03-06T11:37:44.873Z,12.40
2023-03-06T11:40:21.479Z,14.43
2023-03-06T11:42:56.133Z,14.43
2023-03-06T11:45:28.980Z,14.20
2023-03-06T11:48:11.950Z,18.50
2023-03-06T11:50:45.501Z,14.53
2023-03-06T11:53:16.260Z,13.87
2023-03-06T11:55:56.155Z,13.77
2023-03-06T11:59:00.094Z,15.30
2023-03-06T12:01:34.373Z,14.97
2023-03-06T12:04:31.030Z,14.13
2023-03-06T12:07:12.914Z,12.93
2023-03-06T12:09:47.870Z,15.53
2023-03-06T12:12:26.978Z,13.83
2023-03-06T12:15:11.109Z,13.47
2023-03-06T12:17:57.601Z,14.63
2023-03-06T12:20:38.950Z,12.00
2023-03-06T12:23:23.420Z,16.63
2023-03-06T12:25:56.165Z,12.60
2023-03-06T12:28:51.407Z,14.93
2023-03-06T12:31:42.530Z,13.40
2023-03-06T12:34:21.729Z,14.27
2023-03-06T12:37:01.737Z,9.87
2023-03-06T12:39:48.136Z,12.07
2023-03-06T12:42:28.534Z,13.80
2023-03-06T12:45:28.958Z,12.67
2023-03-06T12:47:58.575Z,23.97
2023-03-06T12:50:28.547Z,19.67
2023-03-06T12:53:00.308Z,11.37
2023-03-06T12:55:37.995Z,12.13
2023-03-06T12:58:46.503Z,10.07
2023-03-06T13:01:32.077Z,14.17
2023-03-06T13:04:20.660Z,12.87
2023-03-06T13:07:04.153Z,12.27
2023-03-06T13:09:40.911Z,11.50
2023-03-06T13:12:42.871Z,11.50
2023-03-06T13:15:40.229Z,14.57
2023-03-06T13:18:47.434Z,17.63
2023-03-06T13:21:47.945Z,10.53
2023-03-06T13:24:22.504Z,16.70
2023-03-06T13:26:59.935Z,14.17
2023-03-06T13:29:54.646Z,13.60
2023-03-06T13:32:33.534Z,13.03
2023-03-06T13:35:02.884Z,14.93
2023-03-06T13:37:51.097Z,14.73
2023-03-06T13:40:32.636Z,13.30
2023-03-06T13:43:25.869Z,13.30
2023-03-06T13:45:55.112Z,15.33
2023-03-06T13:48:43.654Z,15.53
2023-03-06T13:51:24.481Z,15.63
2023-03-06T13:54:19.730Z,16.87
2023-03-06T13:57:19.816Z,16.53
2023-03-06T14:00:29.282Z,15.83
2023-03-06T14:03:39.839Z,15.73
2023-03-06T14:06:49.677Z,13.17
2023-03-06T14:09:29.640Z,12.97
2023-03-06T14:12:01.107Z,16.43
2023-03-06T14:14:39.708Z,15.17
2023-03-06T14:17:17.873Z,15.07
2023-03-06T14:19:46.687Z,15.70
2023-03-06T14:22:24.941Z,12.97
2023-03-06T14:25:01.387Z,16.83
2023-03-06T14:27:41.021Z,15.77
2023-03-06T14:30:13.527Z,11.93
2023-03-06T14:32:42.292Z,14.73
2023-03-06T14:35:26.674Z,12.03
2023-03-06T14:37:59.837Z,16.30
2023-03-06T14:40:32.306Z,14.50
2023-03-06T14:43:28.092Z,12.77
2023-03-06T14:45:59.040Z,12.33
2023-03-06T14:48:38.717Z,13.47
2023-03-06T14:51:08.721Z,12.23
2023-03-06T14:53:38.401Z,13.93
2023-03-06T14:56:08.149Z,14.90
2023-03-06T14:58:40.525Z,11.30
2023-03-06T15:01:11.326Z,13.30
2023-03-06T15:03:45.920Z,15.53
2023-03-06T15:06:19.002Z,15.07
2023-03-06T15:08:53.424Z,14.53
2023-03-06T15:11:21.708Z,13.80
2023-03-06T15:14:02.874Z,18.63
2023-03-06T15:16:32.446Z,14.50
2023-03-06T15:19:02.532Z,13.73
2023-03-06T15:21:35.761Z,24.50
2023-03-06T15:24:32.712Z,13.97
2023-03-06T15:27:04.166Z,14.23
2023-03-06T15:29:33.430Z,17.57
2023-03-06T15:32:15.728Z,11.53
2023-03-06T15:34:44.145Z,16.23
2023-03-06T15:37:28.159Z,14.93
2023-03-06T15:40:10.506Z,13.57
2023-03-06T15:42:38.944Z,11.13
2023-03-06T15:45:16.872Z,16.07
2023-03-06T15:47:45.942Z,11.00
2023-03-06T15:50:19.280Z,9.40
2023-03-06T15:52:49.796Z,11.07
2023-03-06T15:55:23.103Z,14.23
2023-03-06T15:57:54.925Z,20.13
2023-03-06T16:00:28.287Z,16.07
2023-03-06T16:02:57.905Z,18.00
2023-03-06T16:05:27.101Z,13.93
2023-03-06T16:07:56.275Z,9.40
2023-03-06T16:10:29.876Z,15.77
2023-03-06T16:13:03.676Z,15.90
2023-03-06T16:15:34.913Z,15.67
2023-03-06T16:18:03.550Z,11.93
2023-03-06T16:20:32.893Z,13.80
2023-03-06T16:23:01.384Z,11.10
2023-03-06T16:25:31.286Z,14.27
2023-03-06T16:28:01.107Z,15.03
2023-03-06T16:30:32.156Z,14.53
2023-03-06T16:33:01.521Z,14.70
2023-03-06T16:35:30.235Z,14.50
2023-03-06T16:37:59.048Z,10.30
2023-03-06T16:40:29.520Z,14.73
2023-03-06T16:42:59.990Z,15.27
2023-03-06T16:45:28.356Z,15.00
2023-03-06T16:47:59.349Z,15.43
2023-03-06T16:50:30.514Z,12.00
2023-03-06T16:52:59.982Z,14.30
2023-03-06T16:55:31.137Z,10.33
2023-03-06T16:58:01.695Z,15.73
2023-03-06T17:00:32.013Z,16.10
2023-03-06T17:03:01.565Z,13.80
2023-03-06T17:05:33.899Z,12.50
2023-03-06T17:08:02.389Z,16.30
2023-03-06T17:10:31.194Z,14.23
2023-03-06T17:13:01.217Z,15.83
2023-03-06T17:15:30.258Z,11.47
2023-03-06T17:17:59.140Z,15.53
2023-03-06T17:20:27.931Z,25.20
2023-03-06T17:22:56.752Z,14.00
2023-03-06T17:25:26.367Z,10.60
2023-03-06T17:27:54.509Z,10.17
2023-03-06T17:30:24.649Z,16.10
2023-03-06T17:32:53.890Z,13.90
2023-03-06T17:35:22.413Z,16.83
2023-03-06T17:37:51.028Z,21.07
2023-03-06T17:40:20.941Z,17.93
2023-03-06T17:42:50.861Z,13.97
2023-03-06T17:45:19.740Z,15.93
2023-03-06T17:47:49.488Z,17.20
2023-03-06T17:50:18.072Z,15.43
2023-03-06T17:52:46.700Z,15.00
2023-03-06T17:55:15.130Z,14.47
2023-03-06T17:57:43.740Z,11.67
2023-03-06T18:00:13.050Z,12.53
2023-03-06T18:02:41.665Z,16.60
2023-03-06T18:05:14.874Z,9.57
2023-03-06T18:07:45.180Z,17.00
2023-03-06T18:10:15.119Z,15.57
2023-03-06T18:12:44.503Z,15.30
2023-03-06T18:15:14.019Z,17.47
2023-03-06T18:17:42.229Z,11.07
2023-03-06T18:20:14.057Z,17.13
2023-03-06T18:22:43.186Z,12.43
2023-03-06T18:25:11.621Z,14.57
2023-03-06T18:27:40.063Z,9.97
2023-03-06T18:30:09.395Z,21.90
2023-03-06T18:32:38.399Z,19.67
2023-03-06T18:35:09.762Z,14.57
2023-03-06T18:37:42.358Z,12.00
2023-03-06T18:40:13.830Z,14.40
2023-03-06T18:42:45.410Z,15.30
2023-03-06T18:45:14.711Z,17.50
2023-03-06T18:47:43.860Z,19.10
2023-03-06T18:50:17.406Z,20.00
2023-03-06T18:52:47.761Z,17.87
2023-03-06T18:55:16.311Z,20.70
2023-03-06T18:57:45.226Z,22.57
2023-03-06T19:00:14.589Z,17.43
2023-03-06T19:02:43.158Z,16.90
2023-03-06T19:05:12.294Z,18.40
2023-03-06T19:07:41.591Z,17.63
2023-03-06T19:10:13.410Z,9.20
2023-03-06T19:12:42.019Z,13.70
2023-03-06T19:15:12.392Z,18.00
2023-03-06T19:17:41.316Z,16.70
2023-03-06T19:20:11.214Z,17.13
2023-03-06T19:22:39.645Z,16.53
2023-03-06T19:25:09.592Z,16.90
2023-03-06T19:27:39.504Z,18.70
2023-03-06T19:30:09.957Z,13.30
2023-03-06T19:32:38.762Z,14.53
2023-03-06T19:35:10.956Z,17.83
2023-03-06T19:37:39.961Z,14.27
2023-03-06T19:40:11.947Z,23.07
2023-03-06T19:42:42.465Z,19.87
2023-03-06T19:45:12.277Z,18.00
2023-03-06T19:47:42.131Z,19.00
2023-03-06T19:50:12.547Z,18.40
2023-03-06T19:52:41.306Z,20.80
2023-03-06T19:55:10.811Z,19.13
2023-03-06T19:57:39.552Z,18.43
2023-03-06T20:00:13.012Z,21.67
2023-03-06T20:02:41.544Z,19.13
2023-03-06T20:05:11.261Z,17.83
2023-03-06T20:07:39.906Z,19.33
2023-03-06T20:10:09.269Z,20.27
2023-03-06T20:12:37.979Z,20.33
2023-03-06T20:15:11.410Z,25.70
2023-03-06T20:17:40.910Z,16.43
2023-03-06T20:20:10.678Z,19.20
2023-03-06T20:22:39.252Z,20.63
2023-03-06T20:25:08.254Z,22.17
2023-03-06T20:27:36.924Z,17.37
2023-03-06T20:30:08.084Z,21.97
2023-03-06T20:32:38.556Z,19.93
2023-03-06T20:35:08.012Z,23.13
2023-03-06T20:37:36.618Z,23.33
2023-03-06T20:40:06.338Z,22.47
2023-03-06T20:42:35.003Z,18.03
2023-03-06T20:45:03.912Z,22.20
2023-03-06T20:47:37.317Z,10.53
2023-03-06T20:50:09.116Z,25.00
2023-03-06T20:52:37.684Z,21.53
2023-03-06T20:55:07.215Z,19.70
2023-03-06T20:57:36.658Z,14.73
2023-03-06T21:00:09.210Z,23.93
2023-03-06T21:02:37.629Z,22.00
2023-03-06T21:05:08.700Z,21.63
2023-03-06T21:07:38.933Z,25.03
2023-03-06T21:10:09.605Z,23.07
2023-03-06T21:12:43.282Z,12.47
2023-03-06T21:15:12.996Z,25.50
2023-03-06T21:17:42.800Z,22.90
2023-03-06T21:20:14.348Z,21.00
2023-03-06T21:22:43.661Z,19.47
2023-03-06T21:25:13.801Z,25.73
2023-03-06T21:27:42.616Z,23.33
2023-03-06T21:30:12.981Z,18.63
2023-03-06T21:32:41.693Z,14.23
2023-03-06T21:35:10.574Z,22.33
2023-03-06T21:37:40.324Z,20.80
2023-03-06T21:40:10.895Z,28.43
2023-03-06T21:42:40.093Z,24.77
2023-03-06T21:45:09.600Z,24.00
2023-03-06T21:47:40.947Z,16.00
2023-03-06T21:50:12.203Z,25.30
2023-03-06T21:52:45.795Z,25.17
2023-03-06T21:55:14.341Z,22.37
2023-03-06T21:57:43.347Z,31.53
2023-03-06T22:00:13.530Z,23.00
2023-03-06T22:02:42.122Z,27.70
2023-03-06T22:05:11.242Z,23.33
2023-03-06T22:07:42.658Z,26.20
2023-03-06T22:10:14.498Z,30.20
2023-03-06T22:12:43.855Z,22.97
2023-03-06T22:15:13.881Z,23.23
2023-03-06T22:17:43.075Z,20.93
2023-03-06T22:20:14.246Z,29.63
2023-03-06T22:22:45.465Z,27.93
2023-03-06T22:25:15.036Z,31.00
2023-03-06T22:27:43.488Z,23.67
2023-03-06T22:30:13.260Z,30.83
2023-03-06T22:32:41.562Z,25.83
2023-03-06T22:35:11.116Z,30.07
2023-03-06T22:37:39.573Z,24.70
2023-03-06T22:40:13.059Z,29.00
2023-03-06T22:42:41.959Z,25.30
2023-03-06T22:45:11.653Z,33.13
2023-03-06T22:47:40.750Z,30.80
2023-03-06T22:50:13.051Z,29.90
2023-03-06T22:52:43.294Z,30.57
2023-03-06T22:55:13.967Z,31.00
2023-03-06T22:57:45.828Z,28.03
2023-03-06T23:00:15.056Z,29.63
2023-03-06T23:02:45.168Z,30.57
2023-03-06T23:05:14.974Z,32.23
2023-03-06T23:07:45.902Z,31.53
2023-03-06T23:10:17.288Z,27.50
2023-03-06T23:13:05.196Z,31.83
2023-03-06T23:15:51.903Z,34.97
2023-03-06T23:18:41.020Z,25.43
2023-03-06T23:21:28.078Z,28.40
2023-03-06T23:24:15.815Z,30.53
2023-03-06T23:26:45.948Z,19.37
2023-03-06T23:29:16.051Z,36.13
2023-03-06T23:31:44.713Z,27.60
2023-03-06T23:34:14.151Z,32.03
2023-03-06T23:36:42.846Z,28.10
2023-03-06T23:39:13.505Z,30.03
2023-03-06T23:41:43.808Z,23.43
2023-03-06T23:44:13.955Z,30.63
2023-03-06T23:46:42.760Z,17.70
2023-03-06T23:49:11.504Z,17.20
2023-03-06T23:51:40.484Z,23.50
2023-03-06T23:54:09.111Z,22.60
2023-03-06T23:56:37.538Z,25.97
2023-03-06T23:59:06.046Z,18.57
